Time;durP1;ratioP1;P1;durP2;ratioP2;P2;SDS_P1;SDS_P2;PMS_P1;PMS_P2;Temp;Humidity;BMP_temperature;BMP_pressure;BME280_temperature;BME280_humidity;BME280_pressure;Samples;Min_cycle;Max_cycle;Signal;HPM_P1;HPM_P2
2022/08/13 00:01:38;;;;;;;3.00;1.77;;;25.50;36.50;;;25.88;28.62;98616.09;5039376;27;124809;-69
2022/08/13 00:04:07;;;;;;;3.40;2.40;;;25.50;36.70;;;25.85;28.61;98616.94;5029765;27;124978;-70
2022/08/13 00:09:11;;;;;;;3.30;2.00;;;25.50;37.00;;;25.78;28.63;98612.09;5038253;27;120254;-68
2022/08/13 00:14:35;;;;;;;3.03;2.00;;;25.40;37.10;;;25.71;28.94;98606.50;5034049;27;124168;-68
2022/08/13 00:17:08;;;;;;;2.67;2.10;;;25.40;37.30;;;25.68;28.74;98613.00;5028403;27;119663;-70
2022/08/13 00:19:38;;;;;;;2.27;1.80;;;25.30;37.30;;;25.67;28.77;98614.25;5031193;27;119189;-69
2022/08/13 00:22:05;;;;;;;2.60;1.87;;;25.30;37.40;;;25.66;28.89;98619.09;5026231;27;123536;-71
2022/08/13 00:24:31;;;;;;;3.60;2.10;;;25.30;37.50;;;25.64;28.98;98621.53;5028793;27;123883;-71
2022/08/13 00:26:59;;;;;;;3.87;1.90;;;25.20;37.40;;;25.65;29.17;98608.19;5034633;27;118987;-70
2022/08/13 00:29:28;;;;;;;4.10;1.80;;;25.20;37.50;;;25.63;28.85;98602.13;5027760;27;118069;-69
2022/08/13 00:31:55;;;;;;;2.73;1.73;;;25.20;37.60;;;25.63;29.33;98600.13;5033903;27;123838;-69
2022/08/13 00:34:22;;;;;;;7.00;1.80;;;25.20;37.70;;;25.64;29.16;98600.94;5038347;27;123836;-70
2022/08/13 00:36:49;;;;;;;2.57;1.90;;;25.20;37.80;;;25.62;28.88;98597.72;5034508;27;119274;-69
2022/08/13 00:39:15;;;;;;;4.83;1.77;;;25.20;37.80;;;25.61;29.27;98596.13;5039230;27;118471;-70
2022/08/13 00:41:46;;;;;;;2.80;1.60;;;25.10;37.80;;;25.55;29.47;98598.59;5046364;27;124057;-70
2022/08/13 00:44:16;;;;;;;2.10;1.83;;;25.10;38.00;;;25.50;29.17;98591.34;5036614;27;123421;-70
2022/08/13 00:46:45;;;;;;;1.93;1.50;;;25.10;38.70;;;25.46;29.43;98590.56;5045198;27;119974;-69
2022/08/13 00:49:13;;;;;;;2.03;1.57;;;25.10;38.10;;;25.42;29.75;98589.81;5022802;27;118101;-69
2022/08/13 00:51:41;;;;;;;2.27;1.43;;;25.00;38.20;;;25.38;29.47;98576.91;5040329;27;124712;-69
2022/08/13 00:54:13;;;;;;;2.03;1.80;;;25.00;38.30;;;25.31;29.70;98583.47;5040769;27;123841;-69
2022/08/13 00:56:40;;;;;;;1.70;1.30;;;25.00;38.40;;;25.27;29.67;98577.81;5040690;27;120210;-69
2022/08/13 00:59:13;;;;;;;3.30;2.00;;;24.90;38.50;;;25.23;30.23;98577.06;5043608;27;119880;-69
2022/08/13 01:01:43;;;;;;;2.10;1.90;;;25.40;39.10;;;25.18;30.15;98585.97;5039408;27;124522;-69
2022/08/13 01:04:11;;;;;;;1.87;1.23;;;24.80;38.80;;;25.12;30.15;98579.13;5041575;27;123714;-70
2022/08/13 01:06:38;;;;;;;2.00;1.27;;;24.80;39.00;;;25.05;30.30;98574.31;5020837;27;118371;-68
2022/08/13 01:09:08;;;;;;;7.13;2.13;;;24.70;39.10;;;24.99;30.27;98573.16;5018260;27;119190;-68
2022/08/13 01:11:37;;;;;;;2.47;1.67;;;24.60;39.30;;;24.92;30.78;98579.66;5015492;27;124216;-71
2022/08/13 01:14:07;;;;;;;6.23;1.70;;;24.50;39.40;;;24.85;30.84;98581.72;5026842;27;123433;-71
2022/08/13 01:16:38;;;;;;;2.90;1.80;;;24.50;39.50;;;24.76;30.87;98587.06;5027432;27;119399;-71
2022/08/13 01:19:09;;;;;;;3.07;2.00;;;24.40;39.70;;;24.64;31.08;98586.31;5041232;27;119016;-71
2022/08/13 01:21:44;;;;;;;4.33;1.83;;;24.20;39.90;;;24.51;30.88;98582.34;5039854;27;124434;-72
2022/08/13 01:24:12;;;;;;;1.50;1.40;;;24.10;39.90;;;24.45;31.15;98579.16;5041271;27;123012;-72
2022/08/13 01:26:39;;;;;;;2.60;1.53;;;24.10;40.00;;;24.43;31.21;98580.75;5032023;27;119651;-71
2022/08/13 01:29:09;;;;;;;2.17;1.73;;;24.00;40.10;;;24.39;31.33;98586.41;5041739;27;119036;-71
2022/08/13 01:31:36;;;;;;;2.83;1.67;;;24.00;40.20;;;24.35;31.36;98584.84;5040611;27;124118;-71
2022/08/13 01:34:03;;;;;;;2.50;1.50;;;23.90;40.30;;;24.31;31.49;98595.31;5028873;27;123946;-71
2022/08/13 01:36:32;;;;;;;1.77;1.30;;;23.90;40.40;;;24.28;31.10;98591.28;5027874;27;119429;-72
2022/08/13 01:39:05;;;;;;;2.63;2.03;;;23.50;40.10;;;24.28;31.44;98588.47;5027690;27;118492;-71
2022/08/13 01:41:33;;;;;;;1.60;1.40;;;23.90;40.50;;;24.27;31.37;98580.44;5018786;27;123195;-71
2022/08/13 01:44:06;;;;;;;1.90;1.70;;;23.90;40.60;;;24.25;31.47;98578.81;5038279;27;122843;-71
2022/08/13 01:52:09;;;;;;;6.23;1.50;;;23.70;40.90;;;24.11;31.90;98575.25;5029677;27;125166;-72
2022/08/13 01:54:38;;;;;;;4.93;2.00;;;23.70;41.00;;;24.09;31.88;98578.47;5028917;27;123579;-72
2022/08/13 01:57:08;;;;;;;1.73;1.50;;;23.70;41.10;;;24.12;32.25;98577.66;5034695;27;119257;-72
2022/08/13 01:59:39;;;;;;;5.03;1.90;;;23.70;41.30;;;24.12;32.12;98577.66;5028768;27;118987;-71
2022/08/13 02:02:10;;;;;;;1.73;1.40;;;23.70;41.30;;;24.09;32.22;98580.50;5033898;27;124280;-71
2022/08/13 02:04:39;;;;;;;2.33;1.97;;;23.70;41.30;;;24.06;32.31;98589.78;5030749;27;123815;-71
2022/08/13 02:07:06;;;;;;;1.53;1.43;;;23.60;41.30;;;24.03;32.39;98591.41;5035094;27;118595;-71
2022/08/13 02:09:32;;;;;;;2.20;1.20;;;23.60;41.40;;;24.00;32.51;98578.09;5024869;27;119355;-71
2022/08/13 02:11:59;;;;;;;2.13;1.33;;;23.60;41.50;;;23.98;32.55;98580.53;5025674;27;123271;-71
2022/08/13 02:14:28;;;;;;;2.20;1.60;;;23.60;41.60;;;23.96;32.65;98580.94;5024249;27;123989;-71
2022/08/13 02:16:54;;;;;;;2.70;1.70;;;23.60;41.70;;;23.95;32.70;98582.16;5025052;27;119364;-71
2022/08/13 02:19:21;;;;;;;2.60;1.43;;;23.60;41.80;;;23.94;32.78;98582.56;5033006;27;118215;-72
2022/08/13 02:21:47;;;;;;;3.27;2.10;;;23.50;41.80;;;23.92;32.90;98585.00;5035071;27;124047;-71
2022/08/13 02:24:14;;;;;;;2.67;1.90;;;23.50;42.00;;;23.91;33.07;98580.53;5024859;27;123420;-71
2022/08/13 02:26:43;;;;;;;2.40;1.60;;;23.50;42.20;;;23.88;32.95;98587.00;5029812;27;119005;-71
2022/08/13 02:29:12;;;;;;;2.40;1.40;;;23.50;42.30;;;23.86;33.02;98583.78;5038816;27;119038;-72
2022/08/13 02:31:43;;;;;;;2.00;1.80;;;23.50;42.40;;;23.84;33.25;98586.22;5024243;27;124604;-71
2022/08/13 02:34:11;;;;;;;2.20;1.63;;;23.50;42.50;;;23.81;33.24;98579.38;5024986;27;123460;-71
2022/08/13 02:36:40;;;;;;;2.47;1.60;;;23.40;42.60;;;23.80;33.20;98583.38;5024450;27;120379;-71
2022/08/13 02:39:09;;;;;;;4.90;1.60;;;23.40;42.70;;;23.77;33.47;98595.50;5024027;27;120043;-72
2022/08/13 02:41:38;;;;;;;2.07;1.67;;;23.40;42.80;;;23.73;33.56;98598.34;5031446;27;124095;-71
2022/08/13 02:44:12;;;;;;;2.07;1.60;;;23.30;42.80;;;23.70;33.50;98601.94;5028333;27;124161;-71
2022/08/13 02:46:43;;;;;;;3.90;2.03;;;23.30;43.00;;;23.65;33.65;98587.44;5027509;27;118427;-71
2022/08/13 02:49:10;;;;;;;2.47;1.70;;;23.30;43.10;;;23.60;33.88;98592.28;5023388;27;119056;-71
2022/08/13 02:51:40;;;;;;;2.63;1.90;;;23.20;43.10;;;23.58;33.69;98593.88;5036044;27;124143;-72
2022/08/13 02:54:07;;;;;;;2.07;1.60;;;23.20;43.30;;;23.57;33.91;98581.00;5032746;27;123795;-71
2022/08/13 02:56:36;;;;;;;2.50;1.77;;;23.10;43.30;;;23.56;34.17;98585.00;5027802;27;120359;-71
2022/08/13 02:59:08;;;;;;;3.23;1.80;;;23.10;43.40;;;23.53;34.07;98581.00;5025581;27;119720;-71
2022/08/13 03:01:40;;;;;;;2.37;1.60;;;23.10;43.50;;;23.51;34.23;98589.06;5030978;27;125211;-72
2022/08/13 03:04:08;;;;;;;2.80;2.03;;;23.10;43.50;;;23.51;34.17;98585.44;5026430;27;123899;-71
2022/08/13 03:06:35;;;;;;;4.00;1.87;;;22.70;43.30;;;23.49;33.96;98590.69;5029281;27;118972;-71
2022/08/13 03:09:04;;;;;;;1.60;1.40;;;23.10;43.70;;;23.47;34.04;98587.47;5030052;27;118706;-71
2022/08/13 03:11:33;;;;;;;3.03;1.67;;;23.10;43.70;;;23.43;34.26;98593.13;5017317;27;124098;-71
2022/08/13 03:14:05;;;;;;;2.20;1.67;;;23.00;44.40;;;23.41;34.34;98598.34;5042976;27;122908;-71
2022/08/13 03:16:33;;;;;;;2.57;1.57;;;23.00;43.90;;;23.42;34.43;98599.13;5014512;27;118604;-71
2022/08/13 03:19:00;;;;;;;2.50;1.67;;;23.00;43.90;;;23.40;34.65;98593.91;5010314;27;117156;-72
2022/08/13 03:21:39;;;;;;;3.13;1.93;;;23.00;44.00;;;23.38;34.35;98599.94;5026956;27;124106;-71
2022/08/13 03:24:12;;;;;;;2.93;1.50;;;23.00;44.00;;;23.36;34.54;98599.53;5032330;27;123191;-72
2022/08/13 03:26:38;;;;;;;1.47;1.37;;;22.90;43.90;;;23.33;34.63;98600.34;5031587;27;119524;-71
2022/08/13 03:29:06;;;;;;;2.27;1.60;;;22.90;44.00;;;23.31;34.42;98588.66;5044752;27;120268;-71
2022/08/13 03:31:36;;;;;;;2.43;1.40;;;22.90;44.10;;;23.28;34.27;98603.56;5009539;27;124156;-72
2022/08/13 03:34:04;;;;;;;2.70;1.80;;;22.90;44.20;;;23.28;34.73;98599.94;5030527;27;123927;-71
2022/08/13 03:36:32;;;;;;;2.17;1.60;;;22.80;44.20;;;23.25;34.58;98592.31;5028046;27;119350;-71
2022/08/13 03:39:00;;;;;;;1.70;1.50;;;22.80;44.20;;;23.22;34.36;98593.13;5023434;27;118042;-71
2022/08/13 03:41:27;;;;;;;2.07;1.50;;;22.80;44.20;;;23.17;35.04;98597.13;5034629;27;124096;-71
2022/08/13 03:43:54;;;;;;;2.20;1.87;;;22.80;44.30;;;23.13;34.96;98602.78;5027684;27;124035;-72
2022/08/13 03:46:26;;;;;;;2.03;1.80;;;22.80;44.50;;;23.08;35.30;98603.19;5027292;27;119530;-72
2022/08/13 03:48:53;;;;;;;5.93;1.57;;;22.70;44.60;;;23.03;35.30;98595.13;5030435;27;118924;-72
2022/08/13 03:51:23;;;;;;;2.87;1.60;;;22.70;44.70;;;22.99;35.14;98599.13;5037547;27;123996;-71
2022/08/13 03:53:53;;;;;;;1.70;1.60;;;22.70;44.80;;;22.93;35.31;98605.13;5022163;27;124084;-72
2022/08/13 03:56:23;;;;;;;2.57;1.60;;;22.60;44.90;;;22.89;35.67;98589.41;5026757;27;118387;-71
2022/08/13 03:58:51;;;;;;;1.60;1.40;;;22.50;45.00;;;22.87;35.58;98589.03;5029656;27;119040;-71
2022/08/13 04:01:18;;;;;;;2.20;1.70;;;22.50;45.10;;;22.85;35.56;98586.59;5035509;27;124918;-71
2022/08/13 04:03:45;;;;;;;2.03;1.57;;;22.50;45.20;;;22.85;35.58;98586.59;5042112;27;123831;-71
2022/08/13 04:06:19;;;;;;;2.87;1.57;;;22.50;45.40;;;22.82;35.71;98590.22;5035181;27;119769;-71
2022/08/13 04:08:48;;;;;;;1.70;1.60;;;22.40;45.30;;;22.79;35.98;98581.78;5026498;27;118952;-71
2022/08/13 04:11:22;;;;;;;3.43;1.93;;;22.40;45.40;;;22.77;36.03;98584.19;5027563;27;124215;-70
2022/08/13 04:13:49;;;;;;;2.43;1.50;;;22.40;45.50;;;22.74;35.94;98596.25;5031205;27;123758;-71
2022/08/13 04:16:22;;;;;;;2.70;1.90;;;22.30;45.60;;;22.71;36.11;98600.66;5027988;27;120312;-71
2022/08/13 04:18:51;;;;;;;1.80;1.30;;;22.30;45.70;;;22.70;36.10;98596.22;5036558;27;121074;-71
2022/08/13 04:21:20;;;;;;;1.87;1.30;;;22.30;45.80;;;22.70;36.17;98593.41;5026502;27;123975;-71
2022/08/13 04:23:49;;;;;;;1.77;1.67;;;22.30;46.00;;;22.68;36.65;98593.03;5041986;27;123019;-71
2022/08/13 04:26:21;;;;;;;1.83;1.67;;;22.30;46.10;;;22.67;36.63;98585.75;5039260;27;119683;-71
2022/08/13 04:28:47;;;;;;;2.30;1.90;;;22.20;46.10;;;22.67;36.36;98582.94;5042106;27;118557;-71
2022/08/13 04:31:15;;;;;;;2.13;1.60;;;22.20;46.20;;;22.66;36.58;98584.97;5039621;27;124006;-71
2022/08/13 04:33:42;;;;;;;1.63;1.47;;;22.30;46.30;;;22.67;36.49;98582.94;5027281;27;123854;-71
2022/08/13 04:36:09;;;;;;;3.20;1.60;;;22.20;46.30;;;22.67;36.40;98585.75;5026081;27;119473;-71
2022/08/13 04:38:35;;;;;;;2.43;1.70;;;22.20;46.40;;;22.65;36.71;98593.81;5025644;27;119139;-70
2022/08/13 04:41:02;;;;;;;2.53;1.80;;;22.20;46.40;;;22.61;36.46;98598.63;5028807;27;124040;-70
2022/08/13 04:43:29;;;;;;;3.30;1.90;;;22.20;46.50;;;22.59;36.88;98590.56;5029677;27;123682;-70
2022/08/13 04:45:59;;;;;;;2.40;1.70;;;22.20;46.60;;;22.57;36.91;98592.16;5025573;27;119240;-70
2022/08/13 04:48:33;;;;;;;1.70;1.60;;;22.10;46.70;;;22.54;36.71;98590.16;5026138;27;118920;-70
2022/08/13 04:51:00;;;;;;;1.73;1.50;;;22.10;46.80;;;22.54;36.73;98593.78;5034034;27;124831;-71
2022/08/13 04:53:35;;;;;;;1.70;1.50;;;22.10;47.00;;;22.55;37.22;98597.41;5037998;27;124291;-70
2022/08/13 04:56:02;;;;;;;1.90;1.70;;;22.10;47.10;;;22.57;37.15;98604.25;5027814;27;119422;-71
2022/08/13 04:58:33;;;;;;;2.80;1.70;;;22.10;47.10;;;22.59;37.03;98599.00;5034233;27;118873;-71
2022/08/13 05:01:00;;;;;;;4.27;2.47;;;22.10;47.20;;;22.60;36.90;98606.28;5025976;27;124112;-71
2022/08/13 05:03:30;;;;;;;2.40;1.70;;;22.10;47.20;;;22.63;36.99;98610.31;5028395;27;124491;-71
2022/08/13 05:05:56;;;;;;;1.93;1.60;;;22.10;47.20;;;22.59;37.19;98604.66;5030422;27;120723;-70
2022/08/13 05:08:23;;;;;;;2.53;1.70;;;22.10;47.30;;;22.60;37.33;98605.47;5036712;27;119274;-71
2022/08/13 05:10:50;;;;;;;1.73;1.50;;;22.10;47.30;;;22.59;37.14;98606.66;5026379;27;123538;-71
2022/08/13 05:13:29;;;;;;;2.50;1.80;;;22.10;47.30;;;22.60;37.16;98608.28;5040370;27;123890;-70
2022/08/13 05:15:58;;;;;;;2.80;1.50;;;22.10;47.40;;;22.59;37.24;98609.47;5041724;27;119137;-71
2022/08/13 05:18:28;;;;;;;2.73;1.80;;;22.10;47.40;;;22.61;37.18;98607.88;5019338;27;118027;-71
2022/08/13 05:20:58;;;;;;;2.20;1.70;;;22.10;47.50;;;22.62;37.25;98606.69;5025916;27;124427;-71
2022/08/13 05:23:24;;;;;;;4.40;1.90;;;22.10;47.50;;;22.66;37.27;98612.31;5024734;27;123881;-72
2022/08/13 05:25:52;;;;;;;2.23;1.70;;;22.10;47.60;;;22.69;37.38;98611.53;5040603;27;118335;-72
2022/08/13 05:28:22;;;;;;;3.27;2.27;;;22.20;47.70;;;22.72;37.04;98605.09;5044883;27;118800;-72
2022/08/13 05:30:49;;;;;;;6.00;3.70;;;22.20;47.60;;;22.72;37.06;98611.53;5028011;27;124238;-71
2022/08/13 05:33:19;;;;;;;3.90;3.03;;;22.20;47.60;;;22.74;37.14;98613.94;5035587;27;123158;-69
2022/08/13 05:35:49;;;;;;;3.20;2.23;;;22.20;47.60;;;22.78;37.14;98611.94;5029818;27;119206;-72
2022/08/13 05:38:22;;;;;;;2.00;1.80;;;22.20;47.60;;;22.82;37.22;98618.41;5025880;27;119049;-71
2022/08/13 05:40:56;;;;;;;4.37;2.33;;;22.30;47.70;;;22.84;37.11;98618.81;5039272;27;124127;-72
2022/08/13 05:43:27;;;;;;;2.70;2.03;;;22.30;47.70;;;22.87;37.11;98622.84;5034921;27;123683;-72
2022/08/13 05:45:58;;;;;;;1.90;1.47;;;22.30;47.70;;;22.90;36.90;98622.84;5025953;27;119359;-72
2022/08/13 05:48:30;;;;;;;6.30;1.60;;;22.40;47.80;;;22.93;36.85;98616.41;5034025;27;118739;-72
2022/08/13 05:51:03;;;;;;;2.90;2.60;;;22.40;47.70;;;22.96;37.07;98622.44;5046664;27;124247;-72
2022/08/13 05:53:32;;;;;;;2.87;1.97;;;22.40;47.80;;;22.99;37.11;98619.66;5033224;27;123892;-72
2022/08/13 05:55:58;;;;;;;2.90;2.50;;;22.40;47.70;;;23.04;37.05;98621.28;5041518;27;120414;-72
2022/08/13 05:58:25;;;;;;;2.30;1.73;;;22.60;47.80;;;23.07;36.70;98607.19;5033093;27;118760;-72
2022/08/13 06:03:39;;;;;;;2.57;1.43;;;22.60;47.70;;;23.15;36.87;98608.00;5036598;27;124998;-72
2022/08/13 06:06:10;;;;;;;2.47;1.77;;;22.60;47.50;;;23.17;36.20;98610.44;5026804;27;118590;-72
2022/08/13 06:08:42;;;;;;;2.20;1.70;;;22.60;47.20;;;23.20;36.31;98601.97;5041480;27;119397;-72
2022/08/13 06:11:11;;;;;;;2.33;1.67;;;22.60;47.20;;;23.25;36.40;98603.59;5044031;27;123078;-72
2022/08/13 06:13:39;;;;;;;2.30;2.10;;;22.70;47.30;;;23.30;36.25;98612.44;5033961;27;123669;-70
2022/08/13 06:16:16;;;;;;;6.47;1.80;;;22.70;47.20;;;23.36;36.35;98604.38;5024527;27;119054;-71
2022/08/13 06:18:43;;;;;;;3.97;2.23;;;22.70;47.00;;;23.38;35.90;98605.59;5042074;27;118809;-71
2022/08/13 06:21:12;;;;;;;2.23;1.60;;;22.70;46.80;;;23.34;36.03;98606.78;5030571;27;123884;-71
2022/08/13 06:23:41;;;;;;;5.63;1.70;;;22.70;46.80;;;23.27;36.07;98613.25;5044716;27;124220;-70
2022/08/13 06:26:10;;;;;;;4.93;1.90;;;22.70;46.80;;;23.26;35.96;98613.63;5025808;27;119107;-71
2022/08/13 06:28:39;;;;;;;2.53;1.77;;;22.60;46.70;;;23.28;35.96;98612.03;5029001;27;119158;-71
2022/08/13 06:31:14;;;;;;;2.03;1.33;;;22.60;46.80;;;23.36;35.86;98612.84;5032145;27;123269;-71
2022/08/13 06:33:40;;;;;;;2.17;1.87;;;22.70;46.80;;;23.42;35.64;98610.41;5027269;27;124086;-71
2022/08/13 06:36:11;;;;;;;2.80;1.80;;;22.80;46.80;;;23.48;35.45;98620.91;5033958;27;119273;-70
2022/08/13 06:38:42;;;;;;;3.57;2.10;;;22.80;46.70;;;23.51;35.65;98619.28;5023996;27;119004;-72
2022/08/13 06:41:11;;;;;;;2.47;1.80;;;22.80;46.60;;;23.51;35.47;98610.84;5028504;27;122375;-71
2022/08/13 06:43:42;;;;;;;2.50;2.10;;;22.80;46.60;;;23.49;35.61;98618.88;5045059;27;124333;-71
2022/08/13 06:46:13;;;;;;;2.60;1.80;;;22.80;46.60;;;23.48;35.77;98622.91;5023592;27;120061;-71
2022/08/13 06:48:40;;;;;;;7.13;2.67;;;22.80;46.60;;;23.51;35.77;98622.13;5019176;27;118874;-71
2022/08/13 06:51:09;;;;;;;2.10;1.60;;;22.80;46.80;;;23.48;35.81;98628.53;5037424;27;122984;-70
2022/08/13 06:53:39;;;;;;;2.97;1.80;;;22.80;46.90;;;23.49;35.82;98628.16;5029603;27;123862;-71
2022/08/13 06:56:11;;;;;;;3.37;1.83;;;22.80;46.80;;;23.54;35.66;98630.56;5026010;27;119068;-71
2022/08/13 06:58:40;;;;;;;2.10;1.90;;;22.80;46.80;;;23.57;35.44;98626.13;5023961;27;118879;-71
2022/08/13 07:01:07;;;;;;;3.23;1.80;;;22.80;46.60;;;23.63;35.69;98630.16;5027870;27;124330;-71
2022/08/13 07:03:35;;;;;;;4.60;2.03;;;22.90;46.70;;;23.68;35.72;98629.75;5039864;27;125965;-71
2022/08/13 07:06:02;;;;;;;3.60;2.10;;;22.90;46.90;;;23.73;35.68;98632.19;5028731;27;119509;-71
2022/08/13 07:08:30;;;;;;;3.00;2.00;;;23.00;46.90;;;23.78;35.85;98631.78;5033090;27;118907;-72
2022/08/13 07:13:45;;;;;;;3.97;1.87;;;23.10;47.10;;;23.90;35.49;98639.00;5032300;27;124153;-71
2022/08/13 07:16:17;;;;;;;4.30;2.73;;;23.20;47.00;;;23.92;35.66;98636.59;5027909;27;119302;-72
2022/08/13 07:18:46;;;;;;;2.80;1.93;;;23.20;47.00;;;23.93;35.39;98631.75;5031857;27;118988;-71
2022/08/13 07:21:17;;;;;;;6.07;2.90;;;23.20;46.90;;;23.95;35.56;98637.78;5027590;27;124750;-72
2022/08/13 07:23:44;;;;;;;3.83;1.97;;;23.20;46.90;;;24.04;35.62;98632.50;5031789;27;123763;-72
2022/08/13 07:26:12;;;;;;;2.50;2.10;;;23.30;46.90;;;24.12;35.30;98641.78;5037446;27;119452;-72
2022/08/13 07:28:40;;;;;;;3.93;2.90;;;23.40;46.70;;;24.13;35.42;98635.72;5035748;27;118871;-72
2022/08/13 07:31:09;;;;;;;3.13;2.40;;;23.40;46.60;;;24.16;35.03;98636.94;5033358;27;124721;-72
2022/08/13 07:33:42;;;;;;;2.77;2.17;;;23.40;46.60;;;24.24;35.03;98642.16;5035179;27;124506;-71
2022/08/13 07:36:14;;;;;;;4.03;2.07;;;23.50;46.70;;;24.33;34.98;98638.09;5037225;27;120205;-71
2022/08/13 07:38:43;;;;;;;6.33;1.90;;;23.50;46.70;;;24.37;35.16;98638.88;5028108;27;119955;-71
2022/08/13 07:41:11;;;;;;;1.90;1.80;;;23.60;47.40;;;24.42;35.08;98641.25;5038344;27;124068;-72
2022/08/13 07:43:43;;;;;;;3.67;2.30;;;23.60;46.60;;;24.50;34.85;98636.41;5034396;27;124401;-71
2022/08/13 07:46:15;;;;;;;2.63;2.17;;;24.00;46.80;;;24.56;34.97;98631.97;5046485;27;118915;-73
2022/08/13 07:48:50;;;;;;;2.40;1.70;;;23.80;46.50;;;24.64;34.96;98625.06;5033228;27;119383;-73
2022/08/13 07:51:19;;;;;;;7.70;2.83;;;23.90;46.40;;;24.75;34.36;98636.31;5027584;27;125134;-72
2022/08/13 07:53:54;;;;;;;2.07;1.90;;;24.00;46.20;;;24.84;34.25;98622.53;5031234;27;123724;-72
2022/08/13 07:56:28;;;;;;;5.03;2.07;;;24.00;46.00;;;24.95;34.54;98630.94;5026540;27;119116;-74
2022/08/13 07:59:02;;;;;;;1.87;1.50;;;24.20;46.00;;;25.03;34.10;98627.66;5026561;27;119229;-73
2022/08/13 08:01:43;;;;;;;2.17;1.97;;;24.20;45.80;;;25.08;34.03;98627.22;5035269;27;124352;-70
2022/08/13 08:04:13;;;;;;;2.50;1.60;;;24.30;45.70;;;25.13;34.15;98629.59;5045660;27;124406;-72
2022/08/13 08:06:42;;;;;;;3.10;1.83;;;24.40;45.70;;;25.18;34.03;98633.25;5037968;27;119866;-70
2022/08/13 08:09:10;;;;;;;3.73;1.93;;;24.40;45.60;;;25.20;33.98;98623.13;5009339;27;118151;-71
2022/08/13 08:14:27;;;;;;;4.60;2.10;;;24.50;45.60;;;25.29;34.00;98614.16;5029493;27;124225;-72
2022/08/13 08:16:54;;;;;;;3.00;2.00;;;24.50;45.60;;;25.34;33.83;98622.22;5028743;27;119422;-71
2022/08/13 08:19:20;;;;;;;2.40;2.17;;;24.60;45.50;;;25.40;33.94;98625.41;5030216;27;118892;-72
2022/08/13 08:21:48;;;;;;;2.90;2.00;;;24.70;45.50;;;25.46;33.49;98630.19;5035425;27;124904;-71
2022/08/13 08:24:15;;;;;;;3.43;2.23;;;24.70;45.30;;;25.52;33.44;98620.03;5043842;27;122922;-72
2022/08/13 08:26:46;;;;;;;6.17;2.10;;;24.80;45.20;;;25.56;33.26;98628.50;5035710;27;120091;-72
2022/08/13 08:29:13;;;;;;;3.00;2.30;;;24.80;45.20;;;25.57;33.44;98621.59;5029906;27;119970;-71
2022/08/13 08:31:40;;;;;;;2.67;1.80;;;24.80;45.00;;;25.57;33.25;98630.88;5035669;27;123883;-71
2022/08/13 08:34:08;;;;;;;3.30;1.80;;;24.90;45.20;;;25.55;33.63;98621.22;5032705;27;124185;-71
2022/08/13 08:36:42;;;;;;;3.00;2.07;;;24.90;45.10;;;25.50;33.48;98618.84;5029745;27;118735;-72
2022/08/13 08:44:45;;;;;;;2.50;1.70;;;24.80;45.00;;;25.51;33.58;98618.41;5029440;27;124412;-72
2022/08/13 08:47:11;;;;;;;2.97;1.90;;;24.80;45.00;;;25.54;33.74;98623.22;5014221;27;117989;-72
2022/08/13 08:49:39;;;;;;;6.33;2.10;;;24.90;45.00;;;25.56;33.45;98617.97;5041044;27;118980;-71
2022/08/13 08:52:08;;;;;;;4.43;2.00;;;24.90;45.00;;;25.62;33.37;98626.00;5035836;27;124456;-72
2022/08/13 08:54:36;;;;;;;2.10;1.90;;;24.90;45.00;;;25.66;33.33;98619.09;5036075;27;124449;-72
2022/08/13 08:57:04;;;;;;;2.70;1.80;;;25.00;44.90;;;25.73;33.52;98618.22;5025569;27;119157;-72
2022/08/13 08:59:35;;;;;;;3.50;1.83;;;25.10;44.90;;;25.78;33.65;98617.75;5041456;27;118209;-72
2022/08/13 09:02:17;;;;;;;3.03;1.70;;;25.20;44.80;;;25.83;33.50;98614.47;5027762;27;124026;-74
2022/08/13 09:04:53;;;;;;;3.47;1.90;;;25.30;44.80;;;25.90;33.12;98614.44;5027934;27;127773;-71
2022/08/13 09:07:21;;;;;;;2.40;1.90;;;25.30;44.70;;;25.88;33.15;98616.88;5034572;27;117713;-72
2022/08/13 09:09:55;;;;;;;2.30;1.90;;;25.30;44.50;;;25.82;33.34;98612.88;5016690;27;118552;-72
2022/08/13 09:12:25;;;;;;;4.20;1.80;;;25.20;44.50;;;25.81;33.29;98611.25;5033670;27;124344;-72
2022/08/13 09:14:52;;;;;;;2.23;1.77;;;25.20;44.60;;;25.87;33.43;98609.63;5036026;27;123863;-72
2022/08/13 09:17:20;;;;;;;3.93;1.60;;;25.30;44.70;;;25.93;33.23;98613.59;5038388;27;120206;-72
2022/08/13 09:19:47;;;;;;;3.50;1.80;;;25.30;44.50;;;26.03;32.99;98608.22;5041439;27;119274;-73
2022/08/13 09:22:19;;;;;;;2.60;1.70;;;25.40;44.40;;;26.08;32.73;98596.44;5041932;27;123816;-72
2022/08/13 09:24:47;;;;;;;3.00;1.97;;;25.40;44.10;;;26.11;32.18;98601.25;5035435;27;123870;-72
2022/08/13 09:27:17;;;;;;;2.83;1.80;;;25.50;44.00;;;26.12;32.20;98597.22;5041229;27;120277;-73
2022/08/13 09:29:45;;;;;;;3.00;1.70;;;25.50;43.80;;;26.13;32.45;98604.47;5044584;27;118911;-72
2022/08/13 09:32:17;;;;;;;3.50;1.70;;;25.50;44.40;;;26.15;32.31;98590.72;5041189;27;123992;-72
2022/08/13 09:34:44;;;;;;;2.00;1.77;;;25.60;43.70;;;26.19;32.49;98594.28;5035443;27;122950;-72
2022/08/13 09:37:12;;;;;;;3.90;2.20;;;25.60;43.50;;;26.25;32.20;98600.28;5036990;27;120205;-72
2022/08/13 09:39:53;;;;;;;2.33;1.97;;;25.70;43.40;;;26.29;31.72;98596.19;5043255;27;119537;-71
2022/08/13 09:42:30;;;;;;;4.33;2.00;;;25.70;43.10;;;26.36;32.03;98596.09;5028189;27;124369;-72
2022/08/13 09:44:59;;;;;;;3.20;1.83;;;25.70;42.80;;;26.42;31.68;98587.94;5044553;27;123242;-72
2022/08/13 09:47:27;;;;;;;3.23;2.00;;;25.80;42.80;;;26.48;31.55;98585.44;5028752;27;118276;-72
2022/08/13 09:49:55;;;;;;;1.77;1.67;;;25.80;42.40;;;26.53;30.89;98582.16;5023755;27;118105;-72
2022/08/13 09:52:21;;;;;;;2.67;1.70;;;25.90;42.10;;;26.60;30.97;98573.56;5035942;27;124628;-72
2022/08/13 09:54:50;;;;;;;2.37;1.70;;;26.00;41.80;;;26.65;30.82;98573.91;5042135;27;122899;-72
2022/08/13 09:57:20;;;;;;;4.40;1.87;;;26.00;41.80;;;26.72;30.93;98564.47;5046121;27;118615;-71
2022/08/13 09:59:48;;;;;;;2.60;2.13;;;26.10;41.60;;;26.78;30.70;98573.28;5029093;27;119211;-72
2022/08/13 10:02:15;;;;;;;3.23;1.80;;;26.20;41.40;;;26.84;30.26;98563.91;5036609;27;124569;-73
2022/08/13 10:04:42;;;;;;;2.53;1.67;;;26.20;40.90;;;26.87;30.04;98568.72;5045174;27;123914;-72
2022/08/13 10:07:12;;;;;;;2.93;1.67;;;26.30;40.60;;;26.94;30.30;98575.50;5032067;27;121560;-72
2022/08/13 10:09:39;;;;;;;2.60;1.47;;;26.30;40.60;;;26.97;29.66;98574.63;5041839;27;119081;-71
2022/08/13 10:12:08;;;;;;;2.17;1.57;;;26.40;40.50;;;27.03;30.01;98570.09;5033050;27;123956;-72
2022/08/13 10:14:35;;;;;;;2.27;1.80;;;26.50;40.70;;;27.09;29.65;98568.38;5045894;27;123459;-70
2022/08/13 10:17:04;;;;;;;3.30;1.73;;;26.50;40.50;;;27.16;29.87;98573.13;5035298;27;119517;-72
2022/08/13 10:19:31;;;;;;;2.93;1.90;;;26.60;40.50;;;27.23;29.75;98573.03;5034224;27;118345;-69
2022/08/13 10:21:58;;;;;;;2.03;1.80;;;26.60;40.20;;;27.28;29.55;98575.38;5036611;27;124318;-70
2022/08/13 10:24:25;;;;;;;6.20;2.20;;;26.70;40.20;;;27.33;29.24;98571.25;5029028;27;124015;-71
2022/08/13 10:26:51;;;;;;;2.67;2.00;;;26.70;40.10;;;27.36;29.62;98570.41;5039338;27;118437;-70
2022/08/13 10:29:18;;;;;;;4.50;2.17;;;26.80;39.90;;;27.36;28.98;98576.06;5041980;27;119060;-72
2022/08/13 10:31:47;;;;;;;1.93;1.73;;;26.80;39.20;;;27.38;28.85;98570.75;5039521;27;124090;-70
2022/08/13 10:34:14;;;;;;;3.27;1.70;;;26.80;39.00;;;27.41;28.83;98565.03;5035005;27;124297;-70
2022/08/13 10:36:42;;;;;;;2.77;2.00;;;26.90;39.00;;;27.46;28.58;98558.84;5032601;27;118413;-72
2022/08/13 10:39:09;;;;;;;3.70;2.00;;;26.50;38.60;;;27.54;28.47;98548.19;5039664;27;119404;-72
2022/08/13 10:41:35;;;;;;;2.50;1.80;;;28.30;39.60;;;27.57;28.39;98550.16;5040623;27;123978;-72
2022/08/13 10:44:02;;;;;;;3.20;2.07;;;27.00;38.30;;;27.59;28.51;98549.69;5045570;27;123845;-72
2022/08/13 10:46:31;;;;;;;4.23;1.70;;;27.00;38.40;;;27.61;28.03;98550.06;5042322;27;118549;-72